Avondale, Ohio
Current Conditions -  °F | °C
As of 11:53 AM on Sunday 23 Nov 2014 (Local Time) from KLUK Reporting Station
Overcast Overcast  
Wind Chill: 16°   Ceiling: 7000
Heat Index: 16°   Visibility: 10mi
Dew Point:   Wind: 6mph
Humidity: 49%   Direction: NA
Pressure: 29.87"   Gusts: NA
Location:  39.1532°N, 84.4859°W
Report Text: KLUK 231653Z VRB05KT 10SM BKN070 OVC090 16/05 A2987 RMK AO2 SLP113 T01560050
Loading
Personal Weather Stations






























Interactive Weather Map New forecast layout! Learn more

10-Day Weather Forecast

Advertisements
Track Severe Weather on mobile